Time;durP1;ratioP1;P1;durP2;ratioP2;P2;SDS_P1;SDS_P2;PMS_P1;PMS_P2;Temp;Humidity;BMP_temperature;BMP_pressure;BME280_temperature;BME280_humidity;BME280_pressure;Samples;Min_cycle;Max_cycle;Signal;HPM_P1;HPM_P2
2023/08/04 00:03:48;;;;;;;0.70;0.40;;;;;;;18.52;87.42;99493.91;10337580;28;20060;-70
2023/08/04 00:08:49;;;;;;;2.40;0.47;;;;;;;18.51;87.82;99503.03;10338598;28;20558;-71
2023/08/04 00:13:51;;;;;;;1.27;0.50;;;;;;;18.46;87.60;99505.47;10335025;28;20057;-71
2023/08/04 00:18:52;;;;;;;1.80;0.38;;;;;;;18.41;88.37;99505.25;10336126;28;20057;-73
2023/08/04 00:23:58;;;;;;;0.80;0.50;;;;;;;18.41;87.71;99508.75;10338905;28;20074;-74
2023/08/04 00:28:59;;;;;;;0.90;0.73;;;;;;;18.32;87.71;99513.44;10336525;28;20120;-72
2023/08/04 00:34:01;;;;;;;1.38;0.30;;;;;;;18.39;88.44;99521.59;10334690;28;20672;-71
2023/08/04 00:39:03;;;;;;;2.08;0.47;;;;;;;18.38;87.75;99522.59;10336108;28;20060;-74
2023/08/04 00:44:04;;;;;;;1.63;0.40;;;;;;;18.38;87.96;99514.53;10333523;28;20113;-72
2023/08/04 00:49:07;;;;;;;1.77;0.32;;;;;;;18.31;88.46;99514.44;10336937;28;20049;-74
2023/08/04 00:54:09;;;;;;;0.85;0.30;;;;;;;18.28;88.78;99514.84;10338346;28;20096;-76
2023/08/04 00:59:10;;;;;;;0.95;0.65;;;;;;;18.22;88.53;99518.28;10336021;28;20049;-73
2023/08/04 01:04:11;;;;;;;4.10;0.60;;;;;;;18.13;89.32;99514.06;10337274;28;20076;-74
2023/08/04 01:09:31;;;;;;;0.70;0.40;;;;;;;18.18;89.42;99519.72;10335221;28;20061;-75
2023/08/04 01:14:34;;;;;;;0.80;0.38;;;;;;;18.17;89.16;99518.03;10335851;28;20061;-73
2023/08/04 01:19:35;;;;;;;0.45;0.38;;;;;;;18.16;89.47;99521.75;10335047;28;20136;-72
2023/08/04 01:24:37;;;;;;;1.25;0.40;;;;;;;18.14;89.58;99526.50;10333067;28;20491;-73
2023/08/04 01:29:42;;;;;;;1.75;0.40;;;;;;;18.12;90.48;99536.63;10332670;28;21320;-72
2023/08/04 01:34:47;;;;;;;0.90;0.30;;;;;;;18.12;90.44;99532.09;10318464;28;20133;-76
2023/08/04 01:39:50;;;;;;;0.82;0.57;;;;;;;18.04;91.44;99523.28;10332974;28;20097;-71
2023/08/04 01:44:51;;;;;;;0.60;0.45;;;;;;;18.06;91.77;99522.09;10331476;28;20138;-72
2023/08/04 01:49:52;;;;;;;1.52;0.60;;;;;;;18.06;92.52;99537.38;10328906;28;20049;-74
2023/08/04 01:54:54;;;;;;;2.22;0.60;;;;;;;17.99;94.24;99527.38;10336250;28;20106;-70
2023/08/04 01:59:57;;;;;;;1.00;0.40;;;;;;;18.02;95.12;99532.38;10338122;28;20042;-71
2023/08/04 02:04:59;;;;;;;1.38;0.80;;;;;;;18.06;96.18;99534.69;10331136;28;20060;-74
2023/08/04 02:10:02;;;;;;;2.45;0.73;;;;;;;18.11;96.75;99540.34;10331549;28;20145;-71
2023/08/04 02:15:04;;;;;;;3.60;0.70;;;;;;;18.08;97.04;99536.19;10332446;28;20049;-74
2023/08/04 02:20:06;;;;;;;1.42;0.73;;;;;;;18.14;97.32;99543.50;10330555;28;20338;-73
2023/08/04 02:25:08;;;;;;;0.77;0.47;;;;;;;18.17;96.76;99542.28;10327797;28;20049;-71
2023/08/04 02:30:10;;;;;;;0.82;0.60;;;;;;;18.18;97.21;99554.75;10329549;28;20353;-75
2023/08/04 02:35:11;;;;;;;1.35;0.90;;;;;;;18.13;96.78;99546.38;10328458;28;20060;-74
2023/08/04 02:40:13;;;;;;;2.05;0.68;;;;;;;18.12;98.18;99552.78;10327777;28;20586;-74
2023/08/04 02:45:14;;;;;;;1.27;0.80;;;;;;;18.10;97.31;99546.75;10326407;28;20195;-72
2023/08/04 02:50:16;;;;;;;1.25;0.90;;;;;;;18.05;99.26;99555.41;10327476;28;20049;-71
2023/08/04 02:55:17;;;;;;;1.60;0.80;;;;;;;18.09;98.55;99553.16;10332560;28;20057;-72
2023/08/04 03:00:19;;;;;;;2.13;0.88;;;;;;;18.02;99.48;99559.31;10332588;28;20053;-74
2023/08/04 03:05:20;;;;;;;4.45;1.13;;;;;;;18.02;97.32;99563.88;10333244;28;20142;-74
2023/08/04 03:10:21;;;;;;;2.70;1.60;;;;;;;17.94;95.87;99561.25;10341187;28;20065;-72
2023/08/04 03:15:23;;;;;;;2.22;1.05;;;;;;;17.97;94.22;99556.34;10342044;28;20169;-72
2023/08/04 03:20:24;;;;;;;2.75;1.60;;;;;;;17.94;93.97;99564.81;10339357;28;20096;-75
2023/08/04 03:25:26;;;;;;;3.92;1.98;;;;;;;17.90;93.20;99563.50;10342265;28;20054;-72
2023/08/04 03:30:27;;;;;;;2.20;1.42;;;;;;;17.93;93.10;99559.63;10338513;28;20053;-76
2023/08/04 03:35:30;;;;;;;4.00;2.30;;;;;;;17.94;92.90;99575.59;10335289;28;20045;-71
2023/08/04 03:40:31;;;;;;;3.95;2.03;;;;;;;17.90;93.27;99571.59;10337840;28;20049;-74
2023/08/04 03:45:33;;;;;;;3.90;2.00;;;;;;;17.88;92.84;99573.63;10336735;28;20463;-73
2023/08/04 03:50:34;;;;;;;3.17;2.67;;;;;;;17.90;93.88;99576.97;10334773;28;20394;-72
2023/08/04 03:55:36;;;;;;;2.60;2.40;;;;;;;17.90;93.45;99581.53;10338476;28;21432;-72
2023/08/04 04:00:37;;;;;;;3.17;2.38;;;;;;;17.91;93.45;99586.72;10336995;28;20056;-69
2023/08/04 04:05:39;;;;;;;4.22;2.50;;;;;;;17.89;94.00;99595.97;10336387;28;20532;-73
2023/08/04 04:10:40;;;;;;;4.75;2.67;;;;;;;17.85;94.09;99595.53;10336769;28;20129;-74
2023/08/04 04:15:41;;;;;;;4.30;2.58;;;;;;;17.83;94.17;99594.84;10334779;28;20445;-73
2023/08/04 04:20:43;;;;;;;3.95;3.25;;;;;;;17.82;94.20;99606.66;10334856;28;20436;-70
2023/08/04 04:25:44;;;;;;;3.42;2.83;;;;;;;17.82;94.28;99614.75;10336913;28;20163;-71
2023/08/04 04:30:45;;;;;;;3.65;2.75;;;;;;;17.82;94.81;99612.88;10333113;28;20440;-73
2023/08/04 04:35:49;;;;;;;4.20;2.72;;;;;;;17.86;94.81;99613.31;10332844;28;20049;-69
2023/08/04 04:40:58;;;;;;;4.63;3.42;;;;;;;17.88;94.57;99618.53;10335631;28;20141;-71
2023/08/04 04:45:59;;;;;;;5.15;3.22;;;;;;;17.84;94.81;99615.38;10336698;28;20364;-71
2023/08/04 04:51:01;;;;;;;4.88;3.50;;;;;;;17.88;95.10;99630.16;10334796;28;20057;-71
2023/08/04 04:56:02;;;;;;;3.83;3.42;;;;;;;17.89;94.41;99628.28;10334251;28;20120;-70
2023/08/04 05:01:04;;;;;;;6.55;3.72;;;;;;;17.87;93.43;99631.16;10332125;28;20062;-72
2023/08/04 05:06:06;;;;;;;4.22;3.92;;;;;;;17.83;94.17;99633.41;10310871;28;20085;-74
2023/08/04 05:11:08;;;;;;;4.80;4.40;;;;;;;17.85;94.96;99628.66;10318992;28;20199;-72
2023/08/04 05:16:09;;;;;;;5.65;4.72;;;;;;;17.89;94.77;99637.22;10320406;28;20050;-75
2023/08/04 05:21:11;;;;;;;6.13;4.20;;;;;;;17.92;94.71;99639.53;10322220;28;20419;-73
2023/08/04 05:26:12;;;;;;;4.55;3.55;;;;;;;17.92;95.17;99644.09;10322134;28;20123;-78
2023/08/04 05:31:14;;;;;;;4.30;3.90;;;;;;;17.93;95.69;99649.28;10324834;28;20101;-73
2023/08/04 05:36:15;;;;;;;6.43;4.63;;;;;;;17.95;96.27;99644.53;10327468;28;20062;-75
2023/08/04 05:41:16;;;;;;;4.03;3.63;;;;;;;17.96;96.08;99657.00;10326984;28;20127;-76
2023/08/04 05:46:18;;;;;;;6.22;4.72;;;;;;;17.93;96.25;99651.97;10329617;28;20050;-81
2023/08/04 05:51:19;;;;;;;6.20;4.20;;;;;;;18.00;96.62;99666.38;10332728;28;20045;-76
2023/08/04 05:56:21;;;;;;;5.65;3.80;;;;;;;18.01;97.11;99665.38;10325535;28;20540;-77
2023/08/04 06:01:23;;;;;;;5.22;4.15;;;;;;;18.05;97.15;99673.06;10323407;28;20402;-79
2023/08/04 06:06:24;;;;;;;5.88;4.32;;;;;;;18.02;96.77;99672.41;10320778;28;20104;-76
2023/08/04 06:11:27;;;;;;;5.20;4.43;;;;;;;18.09;97.73;99685.97;10319408;28;20054;-74
2023/08/04 06:16:28;;;;;;;5.72;4.97;;;;;;;18.09;96.83;99680.59;10317849;28;20504;-77
2023/08/04 06:21:35;;;;;;;6.05;5.07;;;;;;;18.11;96.62;99688.47;10318745;28;20151;-75
2023/08/04 06:26:37;;;;;;;5.85;5.25;;;;;;;18.18;96.48;99686.72;10325437;28;20097;-78
2023/08/04 06:31:38;;;;;;;6.20;4.88;;;;;;;18.17;96.24;99695.81;10321625;28;20060;-75
2023/08/04 06:36:40;;;;;;;6.90;6.10;;;;;;;18.25;96.10;99702.94;10320681;28;20149;-80
2023/08/04 06:41:42;;;;;;;7.32;6.63;;;;;;;18.27;95.77;99711.66;10323234;28;20077;-78
2023/08/04 06:46:43;;;;;;;6.53;5.18;;;;;;;18.28;95.97;99708.78;10322036;28;20042;-74
2023/08/04 06:51:45;;;;;;;6.35;5.75;;;;;;;18.36;96.03;99716.78;10325337;28;20419;-79
2023/08/04 06:56:46;;;;;;;6.50;5.78;;;;;;;18.37;94.69;99721.16;10340070;28;20049;-74
2023/08/04 07:01:48;;;;;;;7.10;5.93;;;;;;;18.34;96.12;99715.28;10317951;28;20085;-75
2023/08/04 07:06:50;;;;;;;6.40;5.32;;;;;;;18.43;96.39;99726.81;10326739;28;20057;-75
2023/08/04 07:11:51;;;;;;;5.55;5.05;;;;;;;18.35;93.61;99733.97;10326697;28;20417;-80
2023/08/04 07:16:53;;;;;;;6.53;5.93;;;;;;;18.31;95.62;99735.34;10325301;28;20053;-78
2023/08/04 07:21:54;;;;;;;7.28;6.40;;;;;;;18.27;93.93;99734.06;10330494;28;20092;-75
2023/08/04 07:26:56;;;;;;;8.85;6.00;;;;;;;18.37;94.84;99744.56;10319702;28;20152;-75
2023/08/04 07:31:57;;;;;;;6.43;5.80;;;;;;;18.49;95.43;99734.13;10325254;28;22084;-74
2023/08/04 07:36:59;;;;;;;6.63;5.82;;;;;;;18.63;94.78;99744.09;10330244;28;20064;-75
2023/08/04 07:42:00;;;;;;;8.45;6.10;;;;;;;18.68;93.94;99749.72;10325522;28;20513;-76
2023/08/04 07:47:02;;;;;;;7.60;6.22;;;;;;;18.69;94.48;99748.72;10327556;28;20527;-74
2023/08/04 07:52:04;;;;;;;6.70;6.03;;;;;;;18.78;93.79;99751.28;10327242;28;20097;-74
2023/08/04 07:57:06;;;;;;;6.47;5.88;;;;;;;18.86;93.16;99756.59;10334569;28;20065;-77
2023/08/04 08:02:08;;;;;;;8.00;7.20;;;;;;;18.53;91.16;99748.91;10331313;28;20116;-74
2023/08/04 08:07:09;;;;;;;7.40;6.70;;;;;;;18.66;93.58;99759.00;10329277;28;20062;-75
2023/08/04 08:12:10;;;;;;;7.30;6.70;;;;;;;18.89;93.56;99764.31;10327655;28;20511;-76
2023/08/04 08:17:12;;;;;;;8.10;6.85;;;;;;;19.05;93.01;99753.31;10322457;28;20429;-76
2023/08/04 08:22:13;;;;;;;10.15;7.55;;;;;;;19.01;90.14;99761.97;10331261;28;20645;-78
2023/08/04 08:27:15;;;;;;;8.95;6.32;;;;;;;18.99;89.70;99774.78;10328355;28;20991;-76
2023/08/04 08:32:16;;;;;;;7.97;6.30;;;;;;;18.83;90.80;99775.84;10324592;28;20061;-75
2023/08/04 08:37:17;;;;;;;8.88;6.55;;;;;;;18.98;90.14;99773.97;10327217;28;20137;-76
2023/08/04 08:42:19;;;;;;;7.53;6.82;;;;;;;19.05;89.69;99765.94;10322999;28;20048;-74
2023/08/04 08:47:23;;;;;;;6.78;6.18;;;;;;;18.97;89.67;99783.06;10314437;28;20132;-76
2023/08/04 08:52:29;;;;;;;9.48;6.95;;;;;;;18.94;90.99;99783.44;10321040;28;20081;-81
2023/08/04 08:57:31;;;;;;;7.63;6.75;;;;;;;18.98;90.64;99784.75;10323828;28;20428;-74
2023/08/04 09:02:32;;;;;;;7.43;6.15;;;;;;;19.04;91.48;99789.38;10319298;28;20057;-73
2023/08/04 09:07:34;;;;;;;9.15;6.65;;;;;;;19.07;91.16;99799.78;10330108;28;20141;-76
2023/08/04 09:12:35;;;;;;;7.80;6.43;;;;;;;19.03;91.77;99798.50;10338155;28;20087;-75
2023/08/04 09:17:39;;;;;;;7.60;6.38;;;;;;;19.03;91.80;99795.78;10325724;28;20144;-73
2023/08/04 09:22:44;;;;;;;7.55;6.85;;;;;;;18.94;91.15;99799.63;10325424;28;20113;-78
2023/08/04 09:27:49;;;;;;;7.38;6.20;;;;;;;18.96;91.98;99803.00;10321706;28;20148;-77
2023/08/04 09:32:51;;;;;;;9.05;6.03;;;;;;;19.02;93.32;99795.97;10315538;28;20514;-79
2023/08/04 09:37:55;;;;;;;6.65;5.78;;;;;;;18.95;91.67;99806.72;10324019;28;20073;-78
2023/08/04 09:42:58;;;;;;;8.30;6.22;;;;;;;19.03;92.07;99806.56;10320159;28;20061;-76
2023/08/04 09:48:08;;;;;;;7.25;6.55;;;;;;;18.99;93.08;99797.22;10328200;28;20077;-75
2023/08/04 09:53:10;;;;;;;6.65;5.70;;;;;;;19.08;89.91;99806.03;10332032;28;20053;-75
2023/08/04 09:58:11;;;;;;;7.53;5.20;;;;;;;19.08;91.28;99809.56;10328691;28;20128;-73
2023/08/04 10:03:13;;;;;;;6.10;4.30;;;;;;;19.15;90.56;99800.69;10320763;28;20140;-75
2023/08/04 10:08:16;;;;;;;5.30;4.15;;;;;;;19.19;90.76;99808.22;10328956;28;20061;-80
2023/08/04 10:13:20;;;;;;;6.47;4.43;;;;;;;19.24;91.66;99804.94;10331888;28;20053;-74
2023/08/04 10:23:30;;;;;;;7.75;5.45;;;;;;;19.31;92.29;99823.94;10093384;28;20489;-63
2023/08/04 10:28:32;;;;;;;7.28;4.57;;;;;;;19.34;92.24;99821.66;10127756;28;20835;-64
2023/08/04 10:33:33;;;;;;;6.65;4.00;;;;;;;19.38;91.66;99816.72;10131076;29;20058;-63
2023/08/04 10:38:49;;;;;;;3.90;3.53;;;;;;;19.35;91.14;99812.56;10134568;28;20063;-63
2023/08/04 10:44:02;;;;;;;5.15;3.50;;;;;;;19.46;91.96;99813.09;10116192;28;20067;-64
2023/08/04 10:49:04;;;;;;;6.53;4.63;;;;;;;19.53;90.98;99814.81;10130285;28;20082;-62
2023/08/04 10:54:06;;;;;;;5.82;3.97;;;;;;;19.54;85.93;99815.63;10114201;28;21199;-62
2023/08/04 10:59:08;;;;;;;3.63;2.83;;;;;;;19.56;84.75;99813.56;10093995;28;20248;-63
2023/08/04 11:04:10;;;;;;;3.72;2.83;;;;;;;19.77;86.58;99819.00;10096681;29;20132;-62
2023/08/04 11:09:12;;;;;;;4.30;2.88;;;;;;;19.95;83.17;99821.25;10098815;28;20048;-63
2023/08/04 11:14:13;;;;;;;2.75;2.53;;;;;;;20.16;83.19;99829.47;10102684;28;20056;-63
2023/08/04 11:19:19;;;;;;;4.15;2.40;;;;;;;20.20;80.89;99825.38;10092777;28;20112;-63
2023/08/04 11:24:24;;;;;;;3.50;1.90;;;;;;;20.32;78.67;99831.88;10109897;28;20059;-63
2023/08/04 11:29:26;;;;;;;4.10;2.35;;;;;;;20.44;76.63;99832.19;10106101;29;20047;-65
2023/08/04 11:34:28;;;;;;;4.07;2.17;;;;;;;20.67;75.96;99831.91;10107773;29;20060;-64
2023/08/04 11:39:30;;;;;;;3.13;2.47;;;;;;;20.99;75.80;99830.41;10125033;28;20705;-62
2023/08/04 11:44:32;;;;;;;3.72;2.28;;;;;;;21.31;74.13;99838.00;10109270;28;20500;-63
2023/08/04 11:49:35;;;;;;;3.72;2.17;;;;;;;21.45;70.85;99839.72;10105353;29;20071;-64
2023/08/04 11:54:53;;;;;;;2.30;1.27;;;;;;;22.11;69.53;99843.53;10123196;28;20097;-62
2023/08/04 11:59:55;;;;;;;1.98;1.70;;;;;;;22.42;64.57;99851.06;10120979;28;20295;-63
2023/08/04 12:05:12;;;;;;;2.22;1.50;;;;;;;22.45;62.78;99844.38;10143668;28;21302;-66
2023/08/04 12:10:14;;;;;;;2.17;1.80;;;;;;;22.46;64.57;99845.19;10143175;28;20092;-64
2023/08/04 12:15:16;;;;;;;2.25;1.67;;;;;;;22.56;65.36;99849.16;10141622;28;20086;-64
2023/08/04 12:20:18;;;;;;;3.55;1.98;;;;;;;22.43;64.47;99841.06;10139825;29;20680;-66
2023/08/04 12:25:21;;;;;;;2.07;1.83;;;;;;;22.20;65.52;99855.00;10138033;28;20500;-64
2023/08/04 12:30:22;;;;;;;2.55;1.80;;;;;;;21.98;66.42;99855.22;10140871;29;20051;-63
2023/08/04 12:35:24;;;;;;;3.30;1.92;;;;;;;21.96;66.57;99851.06;10140492;28;20047;-64
2023/08/04 12:40:26;;;;;;;3.10;2.53;;;;;;;21.88;66.14;99854.81;10139687;28;20048;-63
2023/08/04 12:45:27;;;;;;;2.33;1.65;;;;;;;21.88;65.83;99861.03;10133256;28;20052;-63
2023/08/04 12:50:29;;;;;;;2.40;1.63;;;;;;;21.87;63.63;99853.97;10138456;28;20748;-64
2023/08/04 12:55:30;;;;;;;2.40;1.50;;;;;;;21.87;63.80;99856.69;10144510;28;20075;-63
2023/08/04 13:00:32;;;;;;;2.67;2.20;;;;;;;21.77;64.12;99856.25;10123014;29;20307;-64
2023/08/04 13:05:33;;;;;;;3.05;1.80;;;;;;;21.70;63.71;99837.28;10140437;28;20059;-63
2023/08/04 13:10:35;;;;;;;3.88;1.98;;;;;;;21.51;63.07;99847.06;10153922;28;20573;-63
2023/08/04 13:15:47;;;;;;;3.17;1.80;;;;;;;21.50;62.14;99848.09;10155280;28;20477;-63
2023/08/04 13:20:49;;;;;;;3.63;1.60;;;;;;;21.51;62.03;99844.34;10102761;29;1068746;-63
2023/08/04 13:25:51;;;;;;;2.05;1.35;;;;;;;21.58;63.63;99843.53;10129720;28;20066;-62
2023/08/04 13:30:52;;;;;;;2.50;1.90;;;;;;;21.63;61.47;99847.28;10146279;28;20219;-64
2023/08/04 13:35:54;;;;;;;2.83;1.60;;;;;;;21.63;61.56;99846.44;10145986;28;20059;-64
2023/08/04 13:40:55;;;;;;;4.22;2.10;;;;;;;21.65;62.13;99849.78;10143887;28;20185;-63
2023/08/04 13:46:02;;;;;;;2.17;1.92;;;;;;;21.67;61.33;99847.69;10141603;29;20179;-63
2023/08/04 13:51:04;;;;;;;2.92;1.80;;;;;;;21.79;61.81;99850.63;10178424;28;20824;-62
2023/08/04 13:56:21;;;;;;;2.08;1.73;;;;;;;21.84;60.78;99842.72;10180081;28;20044;-62
2023/08/04 14:01:23;;;;;;;2.75;2.13;;;;;;;21.87;60.87;99847.72;10181706;28;20066;-62
2023/08/04 14:06:25;;;;;;;3.67;1.92;;;;;;;21.79;59.89;99829.78;10176342;28;20081;-62
2023/08/04 14:11:26;;;;;;;3.75;2.47;;;;;;;22.08;59.08;99835.84;10175183;28;20830;-61
2023/08/04 14:16:28;;;;;;;2.53;1.90;;;;;;;22.23;60.05;99851.88;10176915;28;21706;-61
2023/08/04 14:21:30;;;;;;;1.70;1.40;;;;;;;22.22;58.74;99859.19;10180833;28;20047;-61
2023/08/04 14:26:31;;;;;;;1.77;1.50;;;;;;;22.21;58.93;99854.81;10173735;28;20070;-63
2023/08/04 14:31:33;;;;;;;1.25;1.15;;;;;;;22.28;59.06;99851.25;10175557;28;20804;-62
2023/08/04 14:36:34;;;;;;;4.10;1.90;;;;;;;22.29;58.49;99847.50;10192458;28;20109;-62
2023/08/04 14:41:36;;;;;;;2.33;1.70;;;;;;;22.27;59.57;99846.88;10176845;28;20063;-62
2023/08/04 14:46:37;;;;;;;2.05;1.70;;;;;;;22.36;58.56;99840.22;10181899;28;20146;-62
2023/08/04 14:51:39;;;;;;;1.85;1.20;;;;;;;22.44;58.20;99841.88;10179886;28;20056;-61
2023/08/04 14:56:41;;;;;;;2.17;1.60;;;;;;;22.42;57.79;99848.34;10167423;28;20051;-62
2023/08/04 15:01:42;;;;;;;3.80;2.20;;;;;;;22.40;56.68;99844.19;10196724;28;20191;-60
2023/08/04 15:06:44;;;;;;;2.45;1.70;;;;;;;22.34;56.74;99842.28;10184837;28;20246;-62
2023/08/04 15:11:45;;;;;;;1.77;1.58;;;;;;;22.38;57.42;99847.13;10182128;28;20487;-60
2023/08/04 15:16:47;;;;;;;2.47;2.00;;;;;;;22.40;57.26;99844.19;10186390;28;20797;-60
2023/08/04 15:21:50;;;;;;;2.20;1.80;;;;;;;22.34;57.84;99836.88;10184789;28;20059;-60
2023/08/04 15:26:52;;;;;;;2.33;1.75;;;;;;;22.32;57.67;99834.38;10175317;28;20144;-62
2023/08/04 15:31:53;;;;;;;1.92;1.73;;;;;;;22.30;56.88;99846.47;10182046;28;20054;-63
2023/08/04 15:36:55;;;;;;;2.38;1.92;;;;;;;22.21;57.39;99835.00;10180822;28;20175;-62
2023/08/04 15:41:56;;;;;;;1.95;1.73;;;;;;;22.14;57.26;99837.69;10179362;28;20820;-63
2023/08/04 15:46:59;;;;;;;2.78;1.88;;;;;;;22.03;57.17;99830.22;10180442;28;20071;-62
2023/08/04 15:52:00;;;;;;;3.00;2.33;;;;;;;21.87;58.31;99829.59;10180334;28;20142;-61
2023/08/04 15:57:02;;;;;;;2.58;1.42;;;;;;;21.88;59.32;99827.72;10182365;28;20054;-60
2023/08/04 16:02:04;;;;;;;2.63;2.17;;;;;;;21.84;59.88;99837.28;10179256;28;20484;-62
2023/08/04 16:07:06;;;;;;;4.13;2.33;;;;;;;21.78;59.11;99838.94;10196468;28;20051;-63
2023/08/04 16:12:07;;;;;;;2.90;2.30;;;;;;;21.73;59.21;99849.59;10180820;28;20475;-62
2023/08/04 16:17:09;;;;;;;2.95;2.30;;;;;;;21.64;59.65;99842.69;10195422;28;20174;-62
2023/08/04 16:22:11;;;;;;;5.00;2.70;;;;;;;21.53;59.01;99863.91;10185237;28;21042;-63
2023/08/04 16:27:13;;;;;;;5.78;3.33;;;;;;;21.46;65.14;99879.28;10177616;28;20065;-64
2023/08/04 16:32:14;;;;;;;5.25;3.33;;;;;;;21.30;66.41;99887.75;10181978;28;20079;-62
2023/08/04 16:37:16;;;;;;;7.55;4.20;;;;;;;21.02;71.37;99910.34;10167128;28;20142;-64
2023/08/04 16:42:18;;;;;;;4.97;3.78;;;;;;;20.81;75.84;99909.41;10181550;28;20055;-56
2023/08/04 16:47:19;;;;;;;7.25;4.32;;;;;;;20.59;75.94;99905.88;10193142;28;20117;-56
2023/08/04 16:52:21;;;;;;;8.82;3.55;;;;;;;20.43;78.47;99912.44;10179384;28;20066;-56
2023/08/04 16:57:23;;;;;;;6.38;3.95;;;;;;;20.33;81.71;99914.66;10179003;28;20081;-57
2023/08/04 17:02:26;;;;;;;5.85;3.83;;;;;;;20.32;84.21;99915.66;10179425;28;20347;-57
2023/08/04 17:07:29;;;;;;;6.35;3.75;;;;;;;20.25;80.54;99928.28;10178140;28;20051;-57
2023/08/04 17:12:31;;;;;;;6.82;4.10;;;;;;;20.20;84.54;99933.44;10177406;28;20051;-57
2023/08/04 17:17:32;;;;;;;4.88;4.20;;;;;;;20.12;85.24;99926.31;10184361;28;20109;-57
2023/08/04 17:22:34;;;;;;;9.07;5.50;;;;;;;20.05;85.39;99937.06;10198400;28;20078;-57
2023/08/04 17:27:35;;;;;;;11.30;6.05;;;;;;;20.04;83.38;99943.50;10182059;28;20054;-58
2023/08/04 17:32:37;;;;;;;6.53;3.90;;;;;;;19.99;83.07;99943.22;10182824;28;20052;-57
2023/08/04 17:37:38;;;;;;;5.78;4.20;;;;;;;19.98;83.12;99957.75;10184737;28;20404;-57
2023/08/04 17:42:40;;;;;;;6.75;5.20;;;;;;;19.99;85.37;99956.72;10197793;28;20150;-57
2023/08/04 17:47:41;;;;;;;5.00;4.53;;;;;;;20.01;85.48;99960.09;10180495;28;20149;-56
2023/08/04 17:52:43;;;;;;;6.65;4.15;;;;;;;20.05;86.59;99945.16;10181797;28;20059;-57
2023/08/04 17:57:45;;;;;;;4.80;4.22;;;;;;;20.03;85.42;99947.22;10183890;28;20051;-57
2023/08/04 18:02:46;;;;;;;6.07;5.03;;;;;;;20.04;85.27;99957.00;10182020;28;20109;-57
2023/08/04 18:07:48;;;;;;;6.68;4.50;;;;;;;20.04;86.02;99957.00;10191285;28;20058;-58
2023/08/04 18:12:49;;;;;;;6.20;5.60;;;;;;;19.95;85.14;99958.13;10189017;28;20129;-57
2023/08/04 18:17:51;;;;;;;7.50;5.00;;;;;;;19.93;89.06;99961.03;10176933;28;20113;-57
2023/08/04 18:22:55;;;;;;;6.90;5.10;;;;;;;19.96;90.31;99966.06;10175675;28;20078;-57
2023/08/04 18:27:56;;;;;;;;;;;;;;;19.94;88.38;99978.09;10154676;28;20701;-57
2023/08/04 18:32:58;;;;;;;10.45;6.35;;;;;;;19.92;89.01;99981.00;10174366;28;19937;-58
2023/08/04 18:38:00;;;;;;;9.02;6.85;;;;;;;19.94;89.86;99972.69;10173714;28;20155;-57
2023/08/04 18:43:01;;;;;;;9.98;7.18;;;;;;;19.97;91.67;99977.72;10172813;28;20122;-58
2023/08/04 18:48:03;;;;;;;7.68;6.63;;;;;;;19.93;89.66;99977.25;10172359;28;20610;-58
2023/08/04 18:53:05;;;;;;;7.28;6.55;;;;;;;19.94;90.79;99983.50;10186041;28;20063;-57
2023/08/04 18:58:08;;;;;;;8.00;7.10;;;;;;;19.92;92.48;99985.53;10174501;28;20054;-57
2023/08/04 19:03:09;;;;;;;9.33;7.80;;;;;;;19.86;93.66;100002.50;10170848;28;20142;-57
2023/08/04 19:08:11;;;;;;;8.43;6.15;;;;;;;19.77;94.68;100004.44;10174764;28;20549;-58
2023/08/04 19:13:12;;;;;;;6.85;6.05;;;;;;;19.72;94.12;100007.72;10173625;28;20055;-58
2023/08/04 19:18:14;;;;;;;10.15;6.45;;;;;;;19.72;94.34;100010.41;10171079;28;20716;-58
2023/08/04 19:23:15;;;;;;;5.93;5.13;;;;;;;19.72;94.04;100013.13;10184737;28;20731;-60
2023/08/04 19:28:16;;;;;;;6.50;5.65;;;;;;;19.72;94.32;100023.91;10152160;28;20051;-58
2023/08/04 19:33:18;;;;;;;10.18;7.10;;;;;;;19.70;94.60;100030.56;10167986;28;20055;-57
2023/08/04 19:38:20;;;;;;;8.23;5.93;;;;;;;19.70;94.56;100023.28;10171423;28;20145;-57
2023/08/04 19:43:23;;;;;;;9.38;7.05;;;;;;;19.70;94.68;100030.56;10168492;28;20059;-57
2023/08/04 19:48:25;;;;;;;7.32;5.65;;;;;;;19.69;95.07;100032.41;10190630;28;20673;-57
2023/08/04 19:53:27;;;;;;;7.75;6.20;;;;;;;19.67;94.21;100030.94;10171661;28;20055;-57
2023/08/04 19:58:29;;;;;;;9.10;6.83;;;;;;;19.66;95.27;100038.19;10174010;28;20070;-56
2023/08/04 20:03:31;;;;;;;7.97;7.07;;;;;;;19.67;95.46;100042.56;10177167;28;20051;-57
2023/08/04 20:08:32;;;;;;;8.90;7.35;;;;;;;19.66;95.51;100040.88;10178031;28;20059;-57
2023/08/04 20:13:35;;;;;;;9.60;8.48;;;;;;;19.66;95.91;100054.38;10176761;28;20058;-57
2023/08/04 20:18:37;;;;;;;11.80;9.63;;;;;;;19.64;97.25;100047.50;10176536;28;20051;-56
2023/08/04 20:23:39;;;;;;;11.43;8.18;;;;;;;19.61;96.64;100043.31;10172454;28;21224;-58
2023/08/04 20:28:42;;;;;;;10.18;8.43;;;;;;;19.59;96.39;100058.84;10157959;28;20055;-57
2023/08/04 20:33:44;;;;;;;10.05;8.98;;;;;;;19.59;96.14;100061.53;10173779;28;20245;-57
2023/08/04 20:38:46;;;;;;;8.82;7.93;;;;;;;19.56;96.11;100064.63;10175878;28;20051;-57
2023/08/04 20:43:47;;;;;;;6.28;5.68;;;;;;;19.55;94.31;100077.28;10176657;28;20058;-63
2023/08/04 20:48:50;;;;;;;5.95;5.05;;;;;;;19.52;92.27;100077.66;10162774;28;20743;-63
2023/08/04 20:53:51;;;;;;;6.10;5.50;;;;;;;19.46;92.64;100073.00;10182949;28;20047;-63
2023/08/04 20:58:53;;;;;;;5.53;4.60;;;;;;;19.35;87.33;100076.16;10188755;28;20191;-64
2023/08/04 21:03:55;;;;;;;7.90;4.20;;;;;;;19.29;87.04;100072.38;10188494;28;20055;-63
2023/08/04 21:08:57;;;;;;;6.30;3.83;;;;;;;19.28;87.18;100076.06;10168098;28;20059;-64
2023/08/04 21:13:58;;;;;;;4.72;4.20;;;;;;;19.15;85.41;100075.88;10199819;28;20056;-63
2023/08/04 21:19:00;;;;;;;4.70;4.18;;;;;;;19.15;86.05;100074.00;10193511;28;20763;-63
2023/08/04 21:24:02;;;;;;;6.13;4.22;;;;;;;19.07;85.75;100068.72;10193842;28;20067;-63
2023/08/04 21:29:03;;;;;;;4.75;4.03;;;;;;;19.02;85.84;100082.75;10186258;28;20102;-63
2023/08/04 21:34:05;;;;;;;5.05;3.92;;;;;;;18.97;84.59;100100.47;10179330;28;20056;-64
2023/08/04 21:39:07;;;;;;;5.00;4.50;;;;;;;18.89;84.14;100109.50;10183573;28;20047;-64
2023/08/04 21:44:08;;;;;;;5.07;4.30;;;;;;;18.88;85.16;100124.81;10186295;28;20047;-64
2023/08/04 21:49:10;;;;;;;5.25;3.70;;;;;;;18.85;85.52;100133.25;10178762;28;20054;-63
2023/08/04 21:54:12;;;;;;;4.00;3.65;;;;;;;18.78;85.29;100142.22;10186993;28;20438;-63
2023/08/04 21:59:13;;;;;;;4.45;3.95;;;;;;;18.73;84.63;100138.25;10187035;28;20051;-63
2023/08/04 22:04:15;;;;;;;4.28;3.88;;;;;;;18.72;84.83;100150.03;10184670;28;20144;-63
2023/08/04 22:09:17;;;;;;;7.68;4.63;;;;;;;18.69;85.41;100150.38;10200869;28;20055;-63
2023/08/04 22:14:18;;;;;;;4.60;4.20;;;;;;;18.67;86.48;100155.09;10195556;28;20468;-63
2023/08/04 22:19:20;;;;;;;4.35;3.90;;;;;;;18.65;87.12;100150.94;10195777;28;20516;-63
2023/08/04 22:24:22;;;;;;;6.18;4.43;;;;;;;18.64;86.97;100150.06;10167672;28;20697;-63
2023/08/04 22:29:24;;;;;;;4.68;4.22;;;;;;;18.61;85.97;100149.59;10181368;28;20051;-65
2023/08/04 22:34:25;;;;;;;4.18;3.80;;;;;;;18.59;85.18;100147.09;10173436;28;20202;-64
2023/08/04 22:39:26;;;;;;;4.60;3.55;;;;;;;18.58;84.91;100140.00;10177303;28;20616;-65
2023/08/04 22:44:28;;;;;;;6.63;3.95;;;;;;;18.55;83.88;100121.50;10178692;28;20051;-64
2023/08/04 22:49:30;;;;;;;3.55;3.25;;;;;;;18.49;84.31;100108.75;10196016;28;20681;-64
2023/08/04 22:54:31;;;;;;;3.88;3.53;;;;;;;18.46;83.29;100103.72;10178158;28;20057;-67
2023/08/04 22:59:34;;;;;;;4.43;3.85;;;;;;;18.42;82.11;100105.06;10171095;28;20093;-63
2023/08/04 23:04:36;;;;;;;5.65;3.80;;;;;;;18.34;83.20;100085.25;10184726;28;20051;-64
2023/08/04 23:09:41;;;;;;;3.97;3.65;;;;;;;18.33;82.72;100093.50;10181440;28;20047;-63
2023/08/04 23:14:43;;;;;;;3.50;3.20;;;;;;;18.24;82.31;100092.75;10169138;28;20577;-63
2023/08/04 23:19:45;;;;;;;5.18;3.10;;;;;;;18.20;81.08;100097.63;10180826;28;20058;-63
2023/08/04 23:24:46;;;;;;;2.85;2.55;;;;;;;18.17;80.50;100078.28;10185470;28;20043;-63
2023/08/04 23:29:48;;;;;;;4.43;2.88;;;;;;;18.10;79.17;100077.31;10206659;28;20063;-64